首页
METAR-TAF:

METAR-TAF

机场 :

利姆诺斯岛, 希腊

纬度: 39-55N, 经度: 025-14E, 海拔: 5米

当前天气观测

该预报发布于10分钟前的23:50 UTC
静风
温度 9°C
湿度 87%
气压 1011 hPa
能见度10公里或以上
1500米以下无云,无积雨云

METAR: LGLM 092350Z 00000KT CAVOK 09/07 Q1011

时间: 02:00 (00:00 UTC)

预报

该预报发布于1小时和0分钟前的23:00 UTC
预报有效从10日的 00点(UTC)到 10日的 09点(UTC)
风速10节,风向东南
能见度10公里或以上
少量云层高于1800英尺
散云层高于2500英尺
成为
从 10日的 01点(UTC)到 10日的 03点(UTC)
散云层高于1500英尺
多云层高于2000英尺

TAF: LGLM 092300Z 1000/1009 14010KT 9999 FEW018 SCT025 BECMG 1001/1003 SCT015 BKN020

超过4000个机场的气象观测和天气预报(METAR&TAF报告)。

可查询的气象台以黄色和红色小点在地图上表示。

将鼠标移到小点上方,可查看气象台名称。

然后点击查看天气观测和预报。

如需切换地图:点击带黑十字的绿色按钮放大地图;点击带横线的绿色按钮缩小地图;或者点击绿色箭头查看邻近地区的地图。


METAR-TAF: